sensor_id;sensor_type;location;lat;lon;timestamp;pressure;altitude;pressure_sealevel;temperature;humidity
77776;BME280;73554;43.328;6.668;2023-12-28T00:00:54;102333.72;;;14.47;100.00
77776;BME280;73554;43.328;6.668;2023-12-28T00:03:20;102332.78;;;14.52;100.00
77776;BME280;73554;43.328;6.668;2023-12-28T00:05:45;102342.56;;;14.44;100.00
77776;BME280;73554;43.328;6.668;2023-12-28T00:08:10;102339.03;;;14.45;100.00
77776;BME280;73554;43.328;6.668;2023-12-28T00:10:36;102347.81;;;14.47;100.00
77776;BME280;73554;43.328;6.668;2023-12-28T00:13:02;102340.81;;;14.43;100.00
77776;BME280;73554;43.328;6.668;2023-12-28T00:15:28;102341.69;;;14.44;100.00
77776;BME280;73554;43.328;6.668;2023-12-28T00:17:53;102349.63;;;14.41;100.00
77776;BME280;73554;43.328;6.668;2023-12-28T00:20:19;102335.59;;;14.39;100.00
77776;BME280;73554;43.328;6.668;2023-12-28T00:22:44;102339.13;;;14.39;100.00
77776;BME280;73554;43.328;6.668;2023-12-28T00:25:10;102336.47;;;14.39;100.00
77776;BME280;73554;43.328;6.668;2023-12-28T00:27:35;102334.72;;;14.40;100.00
77776;BME280;73554;43.328;6.668;2023-12-28T00:30:04;102340.84;;;14.42;100.00
77776;BME280;73554;43.328;6.668;2023-12-28T00:32:30;102345.25;;;14.41;100.00
77776;BME280;73554;43.328;6.668;2023-12-28T00:34:55;102357.50;;;14.44;100.00
77776;BME280;73554;43.328;6.668;2023-12-28T00:37:20;102354.03;;;14.40;100.00
77776;BME280;73554;43.328;6.668;2023-12-28T00:39:46;102355.78;;;14.41;100.00
77776;BME280;73554;43.328;6.668;2023-12-28T00:42:13;102342.59;;;14.41;100.00
77776;BME280;73554;43.328;6.668;2023-12-28T00:44:38;102341.72;;;14.42;100.00
77776;BME280;73554;43.328;6.668;2023-12-28T00:47:04;102332.09;;;14.40;100.00
77776;BME280;73554;43.328;6.668;2023-12-28T00:49:31;102328.53;;;14.41;100.00
77776;BME280;73554;43.328;6.668;2023-12-28T00:51:57;102330.25;;;14.45;100.00
77776;BME280;73554;43.328;6.668;2023-12-28T00:54:22;102320.66;;;14.38;100.00
77776;BME280;73554;43.328;6.668;2023-12-28T00:56:47;102318.94;;;14.37;100.00
77776;BME280;73554;43.328;6.668;2023-12-28T00:59:13;102318.84;;;14.41;100.00
77776;BME280;73554;43.328;6.668;2023-12-28T01:01:38;102322.41;;;14.37;100.00
77776;BME280;73554;43.328;6.668;2023-12-28T01:04:04;102313.63;;;14.38;100.00
77776;BME280;73554;43.328;6.668;2023-12-28T01:06:29;102308.41;;;14.34;100.00
77776;BME280;73554;43.328;6.668;2023-12-28T01:08:55;102302.25;;;14.30;100.00
77776;BME280;73554;43.328;6.668;2023-12-28T01:11:20;102316.31;;;14.32;100.00
77776;BME280;73554;43.328;6.668;2023-12-28T01:13:46;102321.59;;;14.34;100.00
77776;BME280;73554;43.328;6.668;2023-12-28T01:16:15;102314.56;;;14.30;100.00
77776;BME280;73554;43.328;6.668;2023-12-28T01:18:40;102314.56;;;14.33;100.00
77776;BME280;73554;43.328;6.668;2023-12-28T01:21:06;102326.91;;;14.27;100.00
77776;BME280;73554;43.328;6.668;2023-12-28T01:23:32;102322.53;;;14.25;100.00
77776;BME280;73554;43.328;6.668;2023-12-28T01:25:57;102316.41;;;14.26;100.00
77776;BME280;73554;43.328;6.668;2023-12-28T01:28:23;102320.84;;;14.19;100.00
77776;BME280;73554;43.328;6.668;2023-12-28T01:30:49;102325.22;;;14.22;100.00
77776;BME280;73554;43.328;6.668;2023-12-28T01:33:14;102320.81;;;14.21;100.00
77776;BME280;73554;43.328;6.668;2023-12-28T01:35:41;102323.50;;;14.19;100.00
77776;BME280;73554;43.328;6.668;2023-12-28T01:38:06;102327.97;;;14.14;100.00
77776;BME280;73554;43.328;6.668;2023-12-28T01:40:31;102314.88;;;14.05;100.00
77776;BME280;73554;43.328;6.668;2023-12-28T01:42:57;102316.59;;;14.08;100.00
77776;BME280;73554;43.328;6.668;2023-12-28T01:45:22;102321.88;;;14.08;100.00
77776;BME280;73554;43.328;6.668;2023-12-28T01:47:48;102321.94;;;14.03;100.00
77776;BME280;73554;43.328;6.668;2023-12-28T01:50:14;102318.44;;;14.00;100.00
77776;BME280;73554;43.328;6.668;2023-12-28T01:52:40;102315.75;;;14.06;100.00
77776;BME280;73554;43.328;6.668;2023-12-28T01:55:07;102321.84;;;14.11;100.00
77776;BME280;73554;43.328;6.668;2023-12-28T01:57:33;102330.63;;;14.10;100.00
77776;BME280;73554;43.328;6.668;2023-12-28T01:59:59;102332.38;;;14.12;100.00
77776;BME280;73554;43.328;6.668;2023-12-28T02:02:27;102338.50;;;14.14;100.00
77776;BME280;73554;43.328;6.668;2023-12-28T02:04:53;102329.78;;;14.09;100.00
77776;BME280;73554;43.328;6.668;2023-12-28T02:07:20;102324.41;;;14.15;100.00
77776;BME280;73554;43.328;6.668;2023-12-28T02:09:46;102304.25;;;14.11;100.00
77776;BME280;73554;43.328;6.668;2023-12-28T02:12:12;102324.38;;;14.20;100.00
77776;BME280;73554;43.328;6.668;2023-12-28T02:14:37;102322.63;;;14.19;100.00
77776;BME280;73554;43.328;6.668;2023-12-28T02:17:15;102313.88;;;14.14;100.00
77776;BME280;73554;43.328;6.668;2023-12-28T02:19:49;102302.38;;;14.22;100.00
77776;BME280;73554;43.328;6.668;2023-12-28T02:22:15;102290.81;;;14.31;100.00
77776;BME280;73554;43.328;6.668;2023-12-28T02:27:24;102321.47;;;14.43;100.00
77776;BME280;73554;43.328;6.668;2023-12-28T02:29:50;102324.09;;;14.43;100.00
77776;BME280;73554;43.328;6.668;2023-12-28T02:32:16;102314.47;;;14.42;100.00
77776;BME280;73554;43.328;6.668;2023-12-28T02:34:44;102324.13;;;14.41;100.00
77776;BME280;73554;43.328;6.668;2023-12-28T02:37:12;102315.47;;;14.27;100.00
77776;BME280;73554;43.328;6.668;2023-12-28T02:39:42;102295.19;;;14.35;100.00
77776;BME280;73554;43.328;6.668;2023-12-28T02:42:09;102306.66;;;14.34;100.00
77776;BME280;73554;43.328;6.668;2023-12-28T02:44:34;102310.06;;;14.42;100.00
77776;BME280;73554;43.328;6.668;2023-12-28T02:47:00;102315.34;;;14.42;100.00
77776;BME280;73554;43.328;6.668;2023-12-28T02:49:25;102308.19;;;14.49;100.00
77776;BME280;73554;43.328;6.668;2023-12-28T02:51:51;102320.41;;;14.57;100.00
77776;BME280;73554;43.328;6.668;2023-12-28T02:54:17;102318.63;;;14.56;100.00
77776;BME280;73554;43.328;6.668;2023-12-28T02:56:42;102319.56;;;14.55;100.00
77776;BME280;73554;43.328;6.668;2023-12-28T02:59:08;102313.44;;;14.53;100.00
77776;BME280;73554;43.328;6.668;2023-12-28T03:01:33;102316.06;;;14.53;100.00
77776;BME280;73554;43.328;6.668;2023-12-28T03:03:58;102320.44;;;14.54;100.00
77776;BME280;73554;43.328;6.668;2023-12-28T03:06:24;102311.66;;;14.52;100.00
77776;BME280;73554;43.328;6.668;2023-12-28T03:08:49;102314.38;;;14.48;100.00
77776;BME280;73554;43.328;6.668;2023-12-28T03:11:15;102312.69;;;14.42;100.00
77776;BME280;73554;43.328;6.668;2023-12-28T03:13:41;102300.41;;;14.38;100.00
77776;BME280;73554;43.328;6.668;2023-12-28T03:16:06;102301.28;;;14.40;100.00
77776;BME280;73554;43.328;6.668;2023-12-28T03:18:32;102303.94;;;14.37;100.00
77776;BME280;73554;43.328;6.668;2023-12-28T03:20:57;102295.22;;;14.31;100.00
77776;BME280;73554;43.328;6.668;2023-12-28T03:23:23;102289.09;;;14.27;100.00
77776;BME280;73554;43.328;6.668;2023-12-28T03:25:48;102289.19;;;14.21;100.00
77776;BME280;73554;43.328;6.668;2023-12-28T03:28:14;102286.56;;;14.19;100.00
77776;BME280;73554;43.328;6.668;2023-12-28T03:30:39;102274.34;;;14.14;100.00
77776;BME280;73554;43.328;6.668;2023-12-28T03:33:05;102276.03;;;14.19;100.00
77776;BME280;73554;43.328;6.668;2023-12-28T03:35:30;102272.53;;;14.16;100.00
77776;BME280;73554;43.328;6.668;2023-12-28T03:37:55;102277.84;;;14.14;100.00
77776;BME280;73554;43.328;6.668;2023-12-28T03:40:21;102273.50;;;14.12;100.00
77776;BME280;73554;43.328;6.668;2023-12-28T03:42:47;102284.03;;;14.10;100.00
77776;BME280;73554;43.328;6.668;2023-12-28T03:45:12;102282.31;;;14.08;100.00
77776;BME280;73554;43.328;6.668;2023-12-28T03:47:38;102284.06;;;14.07;100.00
77776;BME280;73554;43.328;6.668;2023-12-28T03:50:04;102285.03;;;14.03;100.00
77776;BME280;73554;43.328;6.668;2023-12-28T03:52:29;102290.28;;;14.02;100.00
77776;BME280;73554;43.328;6.668;2023-12-28T03:54:55;102284.16;;;14.01;100.00
77776;BME280;73554;43.328;6.668;2023-12-28T03:57:21;102282.50;;;13.93;100.00
77776;BME280;73554;43.328;6.668;2023-12-28T03:59:46;102282.50;;;13.91;100.00
77776;BME280;73554;43.328;6.668;2023-12-28T04:02:13;102286.00;;;13.95;100.00
77776;BME280;73554;43.328;6.668;2023-12-28T04:04:38;102278.16;;;13.89;100.00
77776;BME280;73554;43.328;6.668;2023-12-28T04:07:04;102286.06;;;13.90;100.00
77776;BME280;73554;43.328;6.668;2023-12-28T04:09:32;102296.63;;;13.86;100.00
77776;BME280;73554;43.328;6.668;2023-12-28T04:11:58;102288.75;;;13.83;100.00
77776;BME280;73554;43.328;6.668;2023-12-28T04:14:23;102283.44;;;13.87;100.00
77776;BME280;73554;43.328;6.668;2023-12-28T04:16:49;102285.16;;;13.91;100.00
77776;BME280;73554;43.328;6.668;2023-12-28T04:19:14;102296.56;;;13.92;100.00
77776;BME280;73554;43.328;6.668;2023-12-28T04:21:43;102290.41;;;13.91;100.00
77776;BME280;73554;43.328;6.668;2023-12-28T04:24:09;102280.06;;;13.75;100.00
77776;BME280;73554;43.328;6.668;2023-12-28T04:26:34;102272.94;;;13.84;100.00
77776;BME280;73554;43.328;6.668;2023-12-28T04:29:00;102280.78;;;13.89;100.00
77776;BME280;73554;43.328;6.668;2023-12-28T04:31:25;102286.06;;;13.89;100.00
77776;BME280;73554;43.328;6.668;2023-12-28T04:33:51;102278.16;;;13.89;100.00
77776;BME280;73554;43.328;6.668;2023-12-28T04:36:16;102273.75;;;13.89;100.00
77776;BME280;73554;43.328;6.668;2023-12-28T04:38:41;102281.66;;;13.89;100.00
77776;BME280;73554;43.328;6.668;2023-12-28T04:41:09;102283.38;;;13.92;100.00
77776;BME280;73554;43.328;6.668;2023-12-28T04:43:34;102301.00;;;13.88;100.00
77776;BME280;73554;43.328;6.668;2023-12-28T04:48:35;102298.44;;;13.81;100.00
77776;BME280;73554;43.328;6.668;2023-12-28T04:51:04;102307.28;;;13.80;100.00
77776;BME280;73554;43.328;6.668;2023-12-28T04:53:29;102302.88;;;13.77;100.00
77776;BME280;73554;43.328;6.668;2023-12-28T04:55:55;102302.94;;;13.73;100.00
77776;BME280;73554;43.328;6.668;2023-12-28T04:58:20;102305.56;;;13.73;100.00
77776;BME280;73554;43.328;6.668;2023-12-28T05:00:46;102309.06;;;13.72;100.00
77776;BME280;73554;43.328;6.668;2023-12-28T05:03:11;102310.84;;;13.73;100.00
77776;BME280;73554;43.328;6.668;2023-12-28T05:05:37;102303.81;;;13.72;100.00
77776;BME280;73554;43.328;6.668;2023-12-28T05:08:03;102309.16;;;13.69;100.00
77776;BME280;73554;43.328;6.668;2023-12-28T05:10:28;102322.34;;;13.64;100.00
77776;BME280;73554;43.328;6.668;2023-12-28T05:12:54;102315.25;;;13.69;100.00
77776;BME280;73554;43.328;6.668;2023-12-28T05:15:19;102319.72;;;13.65;100.00
77776;BME280;73554;43.328;6.668;2023-12-28T05:17:45;102325.78;;;13.69;100.00
77776;BME280;73554;43.328;6.668;2023-12-28T05:20:10;102329.31;;;13.71;100.00
77776;BME280;73554;43.328;6.668;2023-12-28T05:22:36;102335.44;;;13.72;100.00
77776;BME280;73554;43.328;6.668;2023-12-28T05:25:01;102340.72;;;13.72;100.00
77776;BME280;73554;43.328;6.668;2023-12-28T05:27:27;102349.53;;;13.71;100.00
77776;BME280;73554;43.328;6.668;2023-12-28T05:29:52;102345.97;;;13.73;100.00
77776;BME280;73554;43.328;6.668;2023-12-28T05:32:18;102338.06;;;13.72;100.00
77776;BME280;73554;43.328;6.668;2023-12-28T05:34:43;102344.16;;;13.78;100.00
77776;BME280;73554;43.328;6.668;2023-12-28T05:37:08;102347.75;;;13.73;100.00
77776;BME280;73554;43.328;6.668;2023-12-28T05:39:34;102343.34;;;13.72;100.00
77776;BME280;73554;43.328;6.668;2023-12-28T05:41:59;102345.13;;;13.71;100.00
77776;BME280;73554;43.328;6.668;2023-12-28T05:44:25;102346.06;;;13.65;100.00
77776;BME280;73554;43.328;6.668;2023-12-28T05:46:50;102333.75;;;13.64;100.00
77776;BME280;73554;43.328;6.668;2023-12-28T05:49:17;102340.78;;;13.65;100.00
77776;BME280;73554;43.328;6.668;2023-12-28T05:51:42;102345.16;;;13.66;100.00
77776;BME280;73554;43.328;6.668;2023-12-28T05:54:08;102338.16;;;13.65;100.00
77776;BME280;73554;43.328;6.668;2023-12-28T05:56:34;102340.75;;;13.69;100.00
77776;BME280;73554;43.328;6.668;2023-12-28T05:58:59;102353.97;;;13.65;100.00
77776;BME280;73554;43.328;6.668;2023-12-28T06:01:25;102346.06;;;13.65;100.00
77776;BME280;73554;43.328;6.668;2023-12-28T06:03:50;102337.28;;;13.63;100.00
77776;BME280;73554;43.328;6.668;2023-12-28T06:06:18;102330.28;;;13.58;100.00
77776;BME280;73554;43.328;6.668;2023-12-28T06:08:43;102321.53;;;13.60;100.00
77776;BME280;73554;43.328;6.668;2023-12-28T06:11:09;102330.31;;;13.59;100.00
77776;BME280;73554;43.328;6.668;2023-12-28T06:13:34;102331.16;;;13.61;100.00
77776;BME280;73554;43.328;6.668;2023-12-28T06:16:02;102328.53;;;13.60;100.00
77776;BME280;73554;43.328;6.668;2023-12-28T06:18:27;102336.47;;;13.57;100.00
77776;BME280;73554;43.328;6.668;2023-12-28T06:20:53;102332.13;;;13.50;100.00
77776;BME280;73554;43.328;6.668;2023-12-28T06:23:18;102332.13;;;13.51;100.00
77776;BME280;73554;43.328;6.668;2023-12-28T06:25:44;102328.56;;;13.55;100.00
77776;BME280;73554;43.328;6.668;2023-12-28T06:28:10;102317.19;;;13.55;100.00
77776;BME280;73554;43.328;6.668;2023-12-28T06:30:35;102324.19;;;13.57;100.00
77776;BME280;73554;43.328;6.668;2023-12-28T06:33:00;102327.66;;;13.58;100.00
77776;BME280;73554;43.328;6.668;2023-12-28T06:35:26;102333.84;;;13.55;100.00
77776;BME280;73554;43.328;6.668;2023-12-28T06:37:51;102340.03;;;13.50;100.00
77776;BME280;73554;43.328;6.668;2023-12-28T06:40:17;102334.75;;;13.50;100.00
77776;BME280;73554;43.328;6.668;2023-12-28T06:42:42;102344.41;;;13.52;100.00
77776;BME280;73554;43.328;6.668;2023-12-28T06:45:09;102346.19;;;13.50;100.00
77776;BME280;73554;43.328;6.668;2023-12-28T06:47:34;102340.03;;;13.51;100.00
77776;BME280;73554;43.328;6.668;2023-12-28T06:50:00;102340.00;;;13.53;100.00
77776;BME280;73554;43.328;6.668;2023-12-28T06:52:25;102343.50;;;13.56;100.00
77776;BME280;73554;43.328;6.668;2023-12-28T06:54:51;102339.13;;;13.54;100.00
77776;BME280;73554;43.328;6.668;2023-12-28T06:57:18;102354.09;;;13.52;100.00
77776;BME280;73554;43.328;6.668;2023-12-28T06:59:43;102329.47;;;13.54;100.00
77776;BME280;73554;43.328;6.668;2023-12-28T07:02:09;102336.44;;;13.60;100.00
77776;BME280;73554;43.328;6.668;2023-12-28T07:04:34;102333.78;;;13.61;100.00
77776;BME280;73554;43.328;6.668;2023-12-28T07:07:00;102332.91;;;13.62;100.00
77776;BME280;73554;43.328;6.668;2023-12-28T07:09:25;102334.66;;;13.62;100.00
77776;BME280;73554;43.328;6.668;2023-12-28T07:11:51;102340.75;;;13.67;100.00
77776;BME280;73554;43.328;6.668;2023-12-28T07:14:16;102335.44;;;13.73;100.00
77776;BME280;73554;43.328;6.668;2023-12-28T07:16:41;102338.16;;;13.65;100.00
77776;BME280;73554;43.328;6.668;2023-12-28T07:19:07;102334.53;;;13.76;100.00
77776;BME280;73554;43.328;6.668;2023-12-28T07:21:32;102331.81;;;13.85;100.00
77776;BME280;73554;43.328;6.668;2023-12-28T07:23:58;102336.19;;;13.83;100.00
77776;BME280;73554;43.328;6.668;2023-12-28T07:26:23;102348.47;;;13.85;100.00
77776;BME280;73554;43.328;6.668;2023-12-28T07:28:49;102345.91;;;13.81;100.00
77776;BME280;73554;43.328;6.668;2023-12-28T07:33:50;102350.25;;;13.83;100.00
77776;BME280;73554;43.328;6.668;2023-12-28T07:36:15;102354.63;;;13.86;100.00
77776;BME280;73554;43.328;6.668;2023-12-28T07:38:40;102389.94;;;13.66;100.00
77776;BME280;73554;43.328;6.668;2023-12-28T07:41:06;102378.63;;;13.57;100.00
77776;BME280;73554;43.328;6.668;2023-12-28T07:43:31;102383.13;;;13.46;100.00
77776;BME280;73554;43.328;6.668;2023-12-28T07:45:57;102365.53;;;13.48;100.00
77776;BME280;73554;43.328;6.668;2023-12-28T07:48:22;102393.50;;;13.65;100.00
77776;BME280;73554;43.328;6.668;2023-12-28T07:50:48;102412.22;;;13.29;100.00
77776;BME280;73554;43.328;6.668;2023-12-28T07:53:14;102383.09;;;13.49;100.00
77776;BME280;73554;43.328;6.668;2023-12-28T07:55:39;102399.72;;;13.52;100.00
77776;BME280;73554;43.328;6.668;2023-12-28T07:58:05;102397.97;;;13.53;100.00
77776;BME280;73554;43.328;6.668;2023-12-28T08:00:30;102409.34;;;13.58;100.00
77776;BME280;73554;43.328;6.668;2023-12-28T08:02:56;102401.59;;;13.41;100.00
77776;BME280;73554;43.328;6.668;2023-12-28T08:05:21;102401.50;;;13.50;100.00
77776;BME280;73554;43.328;6.668;2023-12-28T08:07:47;102397.13;;;13.48;100.00
77776;BME280;73554;43.328;6.668;2023-12-28T08:10:12;102389.22;;;13.51;100.00
77776;BME280;73554;43.328;6.668;2023-12-28T08:12:37;102402.22;;;13.69;100.00
77776;BME280;73554;43.328;6.668;2023-12-28T08:15:03;102409.97;;;13.86;100.00
77776;BME280;73554;43.328;6.668;2023-12-28T08:17:29;102404.84;;;13.74;100.00
77776;BME280;73554;43.328;6.668;2023-12-28T08:19:54;102404.97;;;13.55;100.00
77776;BME280;73554;43.328;6.668;2023-12-28T08:22:20;102384.72;;;13.65;100.00
77776;BME280;73554;43.328;6.668;2023-12-28T08:24:46;102375.75;;;13.84;100.00
77776;BME280;73554;43.328;6.668;2023-12-28T08:27:11;102385.31;;;13.91;100.00
77776;BME280;73554;43.328;6.668;2023-12-28T08:29:37;102369.53;;;13.90;100.00
77776;BME280;73554;43.328;6.668;2023-12-28T08:32:02;102375.56;;;14.01;100.00
77776;BME280;73554;43.328;6.668;2023-12-28T08:34:28;102373.91;;;13.91;100.00
77776;BME280;73554;43.328;6.668;2023-12-28T08:36:53;102380.03;;;13.94;100.00
77776;BME280;73554;43.328;6.668;2023-12-28T08:39:19;102398.38;;;14.05;100.00
77776;BME280;73554;43.328;6.668;2023-12-28T08:41:44;102402.03;;;13.93;100.00
77776;BME280;73554;43.328;6.668;2023-12-28T08:44:10;102386.28;;;13.84;100.00
77776;BME280;73554;43.328;6.668;2023-12-28T08:46:35;102372.19;;;13.90;100.00
77776;BME280;73554;43.328;6.668;2023-12-28T08:49:01;102392.47;;;13.82;100.00
77776;BME280;73554;43.328;6.668;2023-12-28T08:51:26;102401.00;;;14.06;100.00
77776;BME280;73554;43.328;6.668;2023-12-28T08:53:51;102416.91;;;13.99;100.00
77776;BME280;73554;43.328;6.668;2023-12-28T08:56:19;102401.91;;;14.02;100.00
77776;BME280;73554;43.328;6.668;2023-12-28T08:58:46;102418.59;;;14.04;100.00
77776;BME280;73554;43.328;6.668;2023-12-28T09:01:23;102400.19;;;14.01;100.00
77776;BME280;73554;43.328;6.668;2023-12-28T09:03:50;102403.16;;;13.65;100.00
77776;BME280;73554;43.328;6.668;2023-12-28T09:06:16;102380.34;;;13.62;100.00
77776;BME280;73554;43.328;6.668;2023-12-28T09:08:43;102360.94;;;13.71;100.00
77776;BME280;73554;43.328;6.668;2023-12-28T09:11:12;102369.69;;;13.72;100.00
77776;BME280;73554;43.328;6.668;2023-12-28T09:13:38;102365.16;;;13.86;100.00
77776;BME280;73554;43.328;6.668;2023-12-28T09:16:05;102373.81;;;14.00;100.00
77776;BME280;73554;43.328;6.668;2023-12-28T09:18:30;102402.06;;;13.87;100.00
77776;BME280;73554;43.328;6.668;2023-12-28T09:20:56;102400.25;;;13.91;100.00
77776;BME280;73554;43.328;6.668;2023-12-28T09:23:21;102408.91;;;14.05;100.00
77776;BME280;73554;43.328;6.668;2023-12-28T09:25:47;102415.03;;;14.08;100.00
77776;BME280;73554;43.328;6.668;2023-12-28T09:28:13;102424.56;;;14.23;100.00
77776;BME280;73554;43.328;6.668;2023-12-28T09:30:38;102439.47;;;14.29;100.00
77776;BME280;73554;43.328;6.668;2023-12-28T09:33:04;102430.63;;;14.33;100.00
77776;BME280;73554;43.328;6.668;2023-12-28T09:35:29;102437.75;;;14.23;100.00
77776;BME280;73554;43.328;6.668;2023-12-28T09:37:55;102422.88;;;14.17;100.00
77776;BME280;73554;43.328;6.668;2023-12-28T09:40:21;102419.31;;;14.18;100.00
77776;BME280;73554;43.328;6.668;2023-12-28T09:43:15;102444.69;;;14.35;100.00
77776;BME280;73554;43.328;6.668;2023-12-28T09:45:48;102431.53;;;14.33;100.00
77776;BME280;73554;43.328;6.668;2023-12-28T09:48:19;102424.44;;;14.35;100.00
77776;BME280;73554;43.328;6.668;2023-12-28T09:50:49;102445.53;;;14.40;100.00
77776;BME280;73554;43.328;6.668;2023-12-28T09:53:15;102434.09;;;14.39;100.00
77776;BME280;73554;43.328;6.668;2023-12-28T09:55:40;102427.06;;;14.38;100.00
77776;BME280;73554;43.328;6.668;2023-12-28T09:58:06;102438.34;;;14.51;100.00
77776;BME280;73554;43.328;6.668;2023-12-28T10:00:33;102443.63;;;14.52;100.00
77776;BME280;73554;43.328;6.668;2023-12-28T10:03:08;102402.78;;;14.80;100.00
77776;BME280;73554;43.328;6.668;2023-12-28T10:05:34;102426.19;;;15.06;100.00
77776;BME280;73554;43.328;6.668;2023-12-28T10:07:59;102455.81;;;15.28;100.00
77776;BME280;73554;43.328;6.668;2023-12-28T10:10:25;102473.28;;;15.39;100.00
77776;BME280;73554;43.328;6.668;2023-12-28T10:12:54;102486.34;;;15.52;100.00
77776;BME280;73554;43.328;6.668;2023-12-28T10:15:30;102490.66;;;15.57;100.00
77776;BME280;73554;43.328;6.668;2023-12-28T10:18:04;102500.19;;;15.66;100.00
77776;BME280;73554;43.328;6.668;2023-12-28T10:20:33;102508.09;;;15.69;100.00
77776;BME280;73554;43.328;6.668;2023-12-28T10:22:59;102515.06;;;15.74;100.00
77776;BME280;73554;43.328;6.668;2023-12-28T10:25:31;102513.28;;;15.75;100.00
77776;BME280;73554;43.328;6.668;2023-12-28T10:27:57;102510.66;;;15.76;100.00
77776;BME280;73554;43.328;6.668;2023-12-28T10:30:24;102515.00;;;15.79;100.00
77776;BME280;73554;43.328;6.668;2023-12-28T10:32:49;102516.69;;;15.84;100.00
77776;BME280;73554;43.328;6.668;2023-12-28T10:35:15;102511.22;;;15.95;100.00
77776;BME280;73554;43.328;6.668;2023-12-28T10:37:41;102518.09;;;16.05;100.00
77776;BME280;73554;43.328;6.668;2023-12-28T10:40:07;102508.34;;;16.09;100.00
77776;BME280;73554;43.328;6.668;2023-12-28T10:43:06;102517.94;;;16.14;100.00
77776;BME280;73554;43.328;6.668;2023-12-28T10:45:37;102519.69;;;16.15;100.00
77776;BME280;73554;43.328;6.668;2023-12-28T10:48:11;102501.25;;;16.11;100.00
77776;BME280;73554;43.328;6.668;2023-12-28T10:50:47;102502.97;;;16.13;100.00
77776;BME280;73554;43.328;6.668;2023-12-28T10:53:38;102505.50;;;16.18;100.00
77776;BME280;73554;43.328;6.668;2023-12-28T10:56:20;102502.75;;;16.25;100.00
77776;BME280;73554;43.328;6.668;2023-12-28T11:01:37;102485.09;;;16.26;100.00
77776;BME280;73554;43.328;6.668;2023-12-28T11:04:12;102489.47;;;16.28;100.00
77776;BME280;73554;43.328;6.668;2023-12-28T11:09:10;102489.28;;;16.39;100.00
77776;BME280;73554;43.328;6.668;2023-12-28T11:16:37;102465.00;;;16.16;100.00
77776;BME280;73554;43.328;6.668;2023-12-28T11:19:18;102462.59;;;16.04;100.00
77776;BME280;73554;43.328;6.668;2023-12-28T11:24:15;102437.25;;;15.87;100.00
77776;BME280;73554;43.328;6.668;2023-12-28T11:26:44;102413.59;;;15.80;100.00
77776;BME280;73554;43.328;6.668;2023-12-28T11:29:09;102420.78;;;15.73;100.00
77776;BME280;73554;43.328;6.668;2023-12-28T11:31:35;102407.75;;;15.61;100.00
77776;BME280;73554;43.328;6.668;2023-12-28T11:34:04;102392.81;;;15.59;100.00
77776;BME280;73554;43.328;6.668;2023-12-28T11:36:37;102380.63;;;15.52;100.00
77776;BME280;73554;43.328;6.668;2023-12-28T11:44:05;102328.03;;;15.33;100.00
77776;BME280;73554;43.328;6.668;2023-12-28T11:46:32;102349.94;;;15.38;100.00
77776;BME280;73554;43.328;6.668;2023-12-28T11:49:10;102326.34;;;15.28;100.00
77776;BME280;73554;43.328;6.668;2023-12-28T11:51:54;102320.09;;;15.33;100.00
77776;BME280;73554;43.328;6.668;2023-12-28T11:54:19;102298.81;;;15.42;100.00
77776;BME280;73554;43.328;6.668;2023-12-28T11:56:48;102306.63;;;15.50;100.00
77776;BME280;73554;43.328;6.668;2023-12-28T11:59:13;102280.31;;;15.41;100.00
77776;BME280;73554;43.328;6.668;2023-12-28T12:01:39;102283.75;;;15.49;100.00
77776;BME280;73554;43.328;6.668;2023-12-28T12:04:05;102293.44;;;15.49;100.00
77776;BME280;73554;43.328;6.668;2023-12-28T12:06:32;102284.59;;;15.50;100.00
77776;BME280;73554;43.328;6.668;2023-12-28T12:08:58;102267.75;;;15.55;100.00
77776;BME280;73554;43.328;6.668;2023-12-28T12:11:24;102273.09;;;15.54;100.00
77776;BME280;73554;43.328;6.668;2023-12-28T12:13:51;102275.69;;;15.55;100.00
77776;BME280;73554;43.328;6.668;2023-12-28T12:16:17;102275.78;;;15.51;100.00
77776;BME280;73554;43.328;6.668;2023-12-28T12:18:42;102276.66;;;15.50;100.00
77776;BME280;73554;43.328;6.668;2023-12-28T12:21:08;102268.75;;;15.50;100.00
77776;BME280;73554;43.328;6.668;2023-12-28T12:23:33;102259.31;;;15.33;100.00
77776;BME280;73554;43.328;6.668;2023-12-28T12:25:59;102251.38;;;15.35;100.00
77776;BME280;73554;43.328;6.668;2023-12-28T12:28:24;102232.75;;;15.41;100.00
77776;BME280;73554;43.328;6.668;2023-12-28T12:30:54;102232.75;;;15.41;100.00
77776;BME280;73554;43.328;6.668;2023-12-28T12:33:24;102218.03;;;15.28;100.00
77776;BME280;73554;43.328;6.668;2023-12-28T12:35:51;102211.84;;;15.29;100.00
77776;BME280;73554;43.328;6.668;2023-12-28T12:38:17;102192.53;;;15.27;100.00
77776;BME280;73554;43.328;6.668;2023-12-28T12:40:43;102204.81;;;15.29;100.00
77776;BME280;73554;43.328;6.668;2023-12-28T12:43:09;102195.22;;;15.22;100.00
77776;BME280;73554;43.328;6.668;2023-12-28T12:45:35;102204.91;;;15.23;100.00
77776;BME280;73554;43.328;6.668;2023-12-28T12:48:02;102190.03;;;15.18;100.00
77776;BME280;73554;43.328;6.668;2023-12-28T12:50:34;102182.13;;;15.16;100.00
77776;BME280;73554;43.328;6.668;2023-12-28T12:53:01;102177.00;;;15.09;100.00
77776;BME280;73554;43.328;6.668;2023-12-28T12:55:27;102153.28;;;15.07;100.00
77776;BME280;73554;43.328;6.668;2023-12-28T12:57:53;102149.66;;;15.13;100.00
77776;BME280;73554;43.328;6.668;2023-12-28T13:00:22;102154.88;;;15.16;100.00
77776;BME280;73554;43.328;6.668;2023-12-28T13:02:50;102144.50;;;15.05;100.00